Time;durP1;ratioP1;P1;durP2;ratioP2;P2;SDS_P1;SDS_P2;PMS_P1;PMS_P2;Temp;Humidity;BMP_temperature;BMP_pressure;BME280_temperature;BME280_humidity;BME280_pressure;Samples;Min_cycle;Max_cycle;Signal;HPM_P1;HPM_P2
2023/01/08 00:01:16;;;;;;;4.70;1.93;;;;;;;;;;5083776;28;20468;-79
2023/01/08 00:03:44;;;;;;;3.20;2.00;;;;;;;;;;5083034;28;20445;-78
2023/01/08 00:06:13;;;;;;;2.70;2.07;;;;;;;;;;5083410;28;20567;-79
2023/01/08 00:08:41;;;;;;;3.10;1.80;;;;;;;;;;5082450;28;20457;-79
2023/01/08 00:11:09;;;;;;;2.53;1.30;;;;;;;;;;5083179;28;20464;-79
2023/01/08 00:13:37;;;;;;;5.07;2.10;;;;;;;;;;5084633;28;20492;-79
2023/01/08 00:16:04;;;;;;;2.40;1.63;;;;;;;;;;5082701;28;20512;-79
2023/01/08 00:18:34;;;;;;;2.70;1.47;;;;;;;;;;5084074;28;20644;-79
2023/01/08 00:21:05;;;;;;;3.10;2.13;;;;;;;;;;5082484;28;20752;-78
2023/01/08 00:23:34;;;;;;;3.37;2.07;;;;;;;;;;5083025;28;20452;-78
2023/01/08 00:26:02;;;;;;;2.60;1.50;;;;;;;;;;5083209;28;20530;-79
2023/01/08 00:28:30;;;;;;;2.60;1.33;;;;;;;;;;5082032;28;20536;-79
2023/01/08 00:30:58;;;;;;;2.30;1.60;;;;;;;;;;5085002;28;20884;-79
2023/01/08 00:33:25;;;;;;;2.70;1.60;;;;;;;;;;5082805;28;20452;-78
2023/01/08 00:35:54;;;;;;;3.20;2.27;;;;;;;;;;5083145;28;20488;-79
2023/01/08 00:38:26;;;;;;;3.87;2.07;;;;;;;;;;5082544;28;20453;-79
2023/01/08 00:40:54;;;;;;;3.03;1.87;;;;;;;;;;5083285;28;20465;-78
2023/01/08 00:43:25;;;;;;;6.23;2.00;;;;;;;;;;5081813;28;20946;-80
2023/01/08 00:45:52;;;;;;;3.50;1.90;;;;;;;;;;5082593;28;20468;-79
2023/01/08 00:48:21;;;;;;;3.23;2.37;;;;;;;;;;5082532;28;20467;-79
2023/01/08 00:50:48;;;;;;;5.73;2.00;;;;;;;;;;5083568;28;20522;-79
2023/01/08 00:53:18;;;;;;;3.30;1.97;;;;;;;;;;5082617;28;20456;-78
2023/01/08 00:55:46;;;;;;;3.37;2.00;;;;;;;;;;5083133;28;20908;-78
2023/01/08 00:58:13;;;;;;;2.47;1.80;;;;;;;;;;5081905;28;20464;-78
2023/01/08 01:00:47;;;;;;;3.30;1.97;;;;;;;;;;5082833;28;20456;-79
2023/01/08 01:03:15;;;;;;;3.20;1.90;;;;;;;;;;5083857;28;20448;-79
2023/01/08 01:05:45;;;;;;;3.20;1.80;;;;;;;;;;5082936;28;20460;-79
2023/01/08 01:08:13;;;;;;;2.87;2.27;;;;;;;;;;5083403;28;20511;-79
2023/01/08 01:10:43;;;;;;;2.60;1.60;;;;;;;;;;5082231;28;20492;-78
2023/01/08 01:13:12;;;;;;;3.07;2.33;;;;;;;;;;5082756;28;20488;-79
2023/01/08 01:15:39;;;;;;;2.30;1.80;;;;;;;;;;5083558;28;20483;-79
2023/01/08 01:18:08;;;;;;;2.60;1.73;;;;;;;;;;5082561;28;20765;-78
2023/01/08 01:20:35;;;;;;;3.33;2.20;;;;;;;;;;5083093;28;20731;-79
2023/01/08 01:23:04;;;;;;;4.30;2.07;;;;;;;;;;5082884;28;20457;-79
2023/01/08 01:25:32;;;;;;;3.47;2.17;;;;;;;;;;5082382;28;20471;-79
2023/01/08 01:28:15;;;;;;;5.40;3.43;;;;;;;;;;5083589;28;20463;-79
2023/01/08 01:30:44;;;;;;;2.87;2.07;;;;;;;;;;5083759;28;20448;-79
2023/01/08 01:33:11;;;;;;;6.17;2.70;;;;;;;;;;5082146;28;20467;-79
2023/01/08 01:35:39;;;;;;;3.27;2.10;;;;;;;;;;5082465;28;20492;-79
2023/01/08 01:38:06;;;;;;;2.67;2.03;;;;;;;;;;5083980;28;20512;-79
2023/01/08 01:40:34;;;;;;;2.33;1.50;;;;;;;;;;5081915;28;20460;-79
2023/01/08 01:43:01;;;;;;;3.00;2.03;;;;;;;;;;5082635;28;20872;-80
2023/01/08 01:45:30;;;;;;;5.00;1.70;;;;;;;;;;5082479;28;20471;-80
2023/01/08 01:48:04;;;;;;;4.27;2.40;;;;;;;;;;5084503;28;20511;-79
2023/01/08 01:50:33;;;;;;;5.40;1.90;;;;;;;;;;5083792;28;20508;-80
2023/01/08 01:53:02;;;;;;;2.40;2.00;;;;;;;;;;5083526;28;20918;-80
2023/01/08 01:55:30;;;;;;;6.93;1.93;;;;;;;;;;5083054;28;20500;-79
2023/01/08 01:58:00;;;;;;;3.97;2.73;;;;;;;;;;5081965;28;20464;-79
2023/01/08 02:00:28;;;;;;;2.90;2.10;;;;;;;;;;5082390;28;20472;-79
2023/01/08 02:02:56;;;;;;;4.63;2.03;;;;;;;;;;5083170;28;20459;-79
2023/01/08 02:05:30;;;;;;;3.03;1.60;;;;;;;;;;5081216;28;20478;-79
2023/01/08 02:08:03;;;;;;;3.70;2.50;;;;;;;;;;5081598;28;20457;-80
2023/01/08 02:10:33;;;;;;;4.17;2.50;;;;;;;;;;5081648;28;20487;-79
2023/01/08 02:13:05;;;;;;;3.57;2.47;;;;;;;;;;5080955;28;20486;-80
2023/01/08 02:15:37;;;;;;;2.70;1.80;;;;;;;;;;5081154;28;20556;-79
2023/01/08 02:18:06;;;;;;;2.30;1.50;;;;;;;;;;5082226;28;20453;-80
2023/01/08 02:20:37;;;;;;;2.80;1.80;;;;;;;;;;5083824;28;20452;-79
2023/01/08 02:23:10;;;;;;;2.80;1.77;;;;;;;;;;5082986;28;20453;-80
2023/01/08 02:25:42;;;;;;;3.03;2.10;;;;;;;;;;5082029;28;20475;-79
2023/01/08 02:28:12;;;;;;;2.37;1.50;;;;;;;;;;5082965;28;20456;-80
2023/01/08 02:30:40;;;;;;;3.30;2.10;;;;;;;;;;5081792;28;20464;-79
2023/01/08 02:33:07;;;;;;;2.60;1.43;;;;;;;;;;5080942;28;20705;-80
2023/01/08 02:35:38;;;;;;;3.87;2.20;;;;;;;;;;5080553;28;20492;-79
2023/01/08 02:38:06;;;;;;;3.37;1.90;;;;;;;;;;5080592;28;20518;-79
2023/01/08 02:40:36;;;;;;;2.83;1.80;;;;;;;;;;5080997;28;20853;-79
2023/01/08 02:43:06;;;;;;;3.43;1.90;;;;;;;;;;5081274;28;20457;-80
2023/01/08 02:45:39;;;;;;;3.17;2.20;;;;;;;;;;5080733;28;20468;-79
2023/01/08 02:48:10;;;;;;;3.60;2.07;;;;;;;;;;5081465;28;20449;-79
2023/01/08 02:50:39;;;;;;;2.70;1.57;;;;;;;;;;5080843;28;20490;-79
2023/01/08 02:53:10;;;;;;;3.00;2.13;;;;;;;;;;5081022;28;20452;-79
2023/01/08 02:55:39;;;;;;;2.87;1.97;;;;;;;;;;5081515;28;20565;-79
2023/01/08 02:58:07;;;;;;;4.00;2.77;;;;;;;;;;5081412;28;20457;-78
2023/01/08 03:00:35;;;;;;;3.47;2.07;;;;;;;;;;5079966;28;20459;-79
2023/01/08 03:03:07;;;;;;;3.20;2.10;;;;;;;;;;5082001;28;20458;-79
2023/01/08 03:05:35;;;;;;;3.67;2.40;;;;;;;;;;5084175;28;20483;-79
2023/01/08 03:08:03;;;;;;;2.43;1.60;;;;;;;;;;5085192;28;20452;-79
2023/01/08 03:10:31;;;;;;;3.37;1.77;;;;;;;;;;5084303;28;20448;-79
2023/01/08 03:13:01;;;;;;;6.10;2.40;;;;;;;;;;5084459;28;20511;-79
2023/01/08 03:15:31;;;;;;;3.13;1.77;;;;;;;;;;5084346;28;20491;-79
2023/01/08 03:18:01;;;;;;;2.83;1.93;;;;;;;;;;5084330;28;20760;-80
2023/01/08 03:20:31;;;;;;;3.00;2.00;;;;;;;;;;5084317;28;20464;-80
2023/01/08 03:23:01;;;;;;;4.87;2.50;;;;;;;;;;5084679;28;20459;-80
2023/01/08 03:25:31;;;;;;;2.93;1.83;;;;;;;;;;5085830;28;20735;-79
2023/01/08 03:28:00;;;;;;;3.23;2.10;;;;;;;;;;5084061;28;20896;-80
2023/01/08 03:30:29;;;;;;;5.90;2.00;;;;;;;;;;5084212;28;20795;-80
2023/01/08 03:32:58;;;;;;;2.57;1.40;;;;;;;;;;5084961;28;20459;-80
2023/01/08 03:35:26;;;;;;;3.33;1.27;;;;;;;;;;5084138;28;20470;-79
2023/01/08 03:37:57;;;;;;;4.13;1.77;;;;;;;;;;5084568;28;20775;-79
2023/01/08 03:40:26;;;;;;;4.13;2.10;;;;;;;;;;5083197;28;20456;-79
2023/01/08 03:42:54;;;;;;;3.13;1.73;;;;;;;;;;5084030;28;20460;-79
2023/01/08 03:45:25;;;;;;;2.60;1.80;;;;;;;;;;5083897;28;20880;-78
2023/01/08 03:47:53;;;;;;;4.90;2.50;;;;;;;;;;5082846;28;20449;-79
2023/01/08 03:50:23;;;;;;;5.47;1.97;;;;;;;;;;5084072;28;20457;-79
2023/01/08 03:52:50;;;;;;;2.87;1.80;;;;;;;;;;5083890;28;20456;-79
2023/01/08 03:55:19;;;;;;;3.30;1.53;;;;;;;;;;5081879;28;20467;-78
2023/01/08 03:57:47;;;;;;;2.70;1.60;;;;;;;;;;5084846;28;20488;-80
2023/01/08 04:00:15;;;;;;;2.80;2.00;;;;;;;;;;5084861;28;20458;-79
2023/01/08 04:02:43;;;;;;;2.40;1.60;;;;;;;;;;5086728;28;20457;-79
2023/01/08 04:05:10;;;;;;;2.50;2.00;;;;;;;;;;5083551;28;20887;-79
2023/01/08 04:07:38;;;;;;;2.80;1.63;;;;;;;;;;5082744;28;20527;-79
2023/01/08 04:10:06;;;;;;;5.20;1.87;;;;;;;;;;5083434;28;20733;-79
2023/01/08 04:12:35;;;;;;;2.83;1.80;;;;;;;;;;5083240;28;20459;-79
2023/01/08 04:15:02;;;;;;;2.90;1.57;;;;;;;;;;5083227;28;20465;-79
2023/01/08 04:17:30;;;;;;;3.77;2.10;;;;;;;;;;5083204;28;20489;-79
2023/01/08 04:19:58;;;;;;;2.50;1.63;;;;;;;;;;5083079;28;20740;-80
2023/01/08 04:22:25;;;;;;;3.57;2.40;;;;;;;;;;5084825;28;20803;-79
2023/01/08 04:24:53;;;;;;;2.90;1.73;;;;;;;;;;5083041;28;20456;-80
2023/01/08 04:27:20;;;;;;;4.13;1.80;;;;;;;;;;5083326;28;20460;-79
2023/01/08 04:29:49;;;;;;;2.97;1.87;;;;;;;;;;5084467;28;20447;-79
2023/01/08 04:32:17;;;;;;;3.00;1.47;;;;;;;;;;5083250;28;20471;-79
2023/01/08 04:34:47;;;;;;;2.67;2.00;;;;;;;;;;5084332;28;20735;-79
2023/01/08 04:37:15;;;;;;;5.00;2.10;;;;;;;;;;5083792;28;20484;-79
2023/01/08 04:39:42;;;;;;;3.10;2.20;;;;;;;;;;5083338;28;20452;-79
2023/01/08 04:42:10;;;;;;;2.50;1.87;;;;;;;;;;5083642;28;20930;-79
2023/01/08 04:44:38;;;;;;;4.80;2.47;;;;;;;;;;5082854;28;20452;-79
2023/01/08 04:47:07;;;;;;;2.93;2.00;;;;;;;;;;5083251;28;20470;-79
2023/01/08 04:49:34;;;;;;;4.30;2.03;;;;;;;;;;5083347;28;20444;-79
2023/01/08 04:52:02;;;;;;;5.40;2.00;;;;;;;;;;5082085;28;20464;-79
2023/01/08 04:54:29;;;;;;;4.50;2.10;;;;;;;;;;5082857;28;20460;-79
2023/01/08 04:56:57;;;;;;;4.03;2.23;;;;;;;;;;5082212;28;20902;-79
2023/01/08 04:59:24;;;;;;;3.47;2.03;;;;;;;;;;5082936;28;20460;-79
2023/01/08 05:01:52;;;;;;;3.87;1.97;;;;;;;;;;5084209;28;20461;-79
2023/01/08 05:04:21;;;;;;;3.60;2.10;;;;;;;;;;5081837;28;20455;-79
2023/01/08 05:06:48;;;;;;;2.80;1.90;;;;;;;;;;5082375;28;20476;-79
2023/01/08 05:09:16;;;;;;;2.60;1.63;;;;;;;;;;5081466;28;20459;-79
2023/01/08 05:11:43;;;;;;;3.00;1.80;;;;;;;;;;5084722;28;20906;-79
2023/01/08 05:14:11;;;;;;;3.97;2.30;;;;;;;;;;5085411;28;20461;-79
2023/01/08 05:16:38;;;;;;;2.30;1.90;;;;;;;;;;5081523;28;20488;-79
2023/01/08 05:19:06;;;;;;;2.70;1.83;;;;;;;;;;5082827;28;20477;-79
2023/01/08 05:21:35;;;;;;;3.33;2.00;;;;;;;;;;5081542;28;20468;-79
2023/01/08 05:24:02;;;;;;;5.80;2.10;;;;;;;;;;5082160;28;20457;-79
2023/01/08 05:26:30;;;;;;;2.73;1.83;;;;;;;;;;5082295;28;20472;-79
2023/01/08 05:28:58;;;;;;;3.60;2.43;;;;;;;;;;5079880;28;20758;-79
2023/01/08 05:31:26;;;;;;;3.60;2.03;;;;;;;;;;5083022;28;20679;-78
2023/01/08 05:33:53;;;;;;;3.00;2.00;;;;;;;;;;5082173;28;20879;-79
2023/01/08 05:36:21;;;;;;;3.53;2.03;;;;;;;;;;5083420;28;20494;-80
2023/01/08 05:38:50;;;;;;;3.80;2.17;;;;;;;;;;5081927;28;20833;-80
2023/01/08 05:41:17;;;;;;;4.60;2.13;;;;;;;;;;5080392;28;20445;-80
2023/01/08 05:43:45;;;;;;;2.80;1.63;;;;;;;;;;5083650;28;20459;-80
2023/01/08 05:46:13;;;;;;;4.30;2.07;;;;;;;;;;5081570;28;20468;-80
2023/01/08 05:48:40;;;;;;;4.53;1.97;;;;;;;;;;5081251;28;20471;-80
2023/01/08 05:51:08;;;;;;;4.70;2.43;;;;;;;;;;5081859;28;20460;-80
2023/01/08 05:53:35;;;;;;;3.10;1.83;;;;;;;;;;5081340;28;20468;-80
2023/01/08 05:56:08;;;;;;;4.77;2.47;;;;;;;;;;5083273;28;20739;-79
2023/01/08 05:58:36;;;;;;;2.80;1.90;;;;;;;;;;5082536;28;20471;-79
2023/01/08 06:01:04;;;;;;;4.43;2.80;;;;;;;;;;5080857;28;20463;-80
2023/01/08 06:03:32;;;;;;;4.23;2.37;;;;;;;;;;5080963;28;20863;-79
2023/01/08 06:06:00;;;;;;;3.40;2.37;;;;;;;;;;5082014;28;20865;-80
2023/01/08 06:08:28;;;;;;;4.27;2.23;;;;;;;;;;5081731;28;20460;-80
2023/01/08 06:10:56;;;;;;;5.13;1.90;;;;;;;;;;5081314;28;20469;-80
2023/01/08 06:13:25;;;;;;;3.10;1.83;;;;;;;;;;5082238;28;20472;-79
2023/01/08 06:15:52;;;;;;;4.50;2.53;;;;;;;;;;5083330;28;20456;-79
2023/01/08 06:18:20;;;;;;;3.10;2.10;;;;;;;;;;5080936;28;20729;-79
2023/01/08 06:20:47;;;;;;;4.17;2.20;;;;;;;;;;5082656;28;20459;-79
2023/01/08 06:23:15;;;;;;;3.30;1.80;;;;;;;;;;5081854;28;20749;-79
2023/01/08 06:25:42;;;;;;;3.67;2.00;;;;;;;;;;5081455;28;20502;-80
2023/01/08 06:28:10;;;;;;;4.63;2.13;;;;;;;;;;5083005;28;20470;-79
2023/01/08 06:30:39;;;;;;;4.63;2.40;;;;;;;;;;5081714;28;20467;-79
2023/01/08 06:33:08;;;;;;;4.47;2.90;;;;;;;;;;5081619;28;20452;-79
2023/01/08 06:35:36;;;;;;;3.23;2.17;;;;;;;;;;5081435;28;20594;-80
2023/01/08 06:38:03;;;;;;;3.83;2.47;;;;;;;;;;5080728;28;20498;-79
2023/01/08 06:40:31;;;;;;;2.93;2.10;;;;;;;;;;5084849;28;20467;-79
2023/01/08 06:43:02;;;;;;;2.80;1.97;;;;;;;;;;5085096;28;20515;-79
2023/01/08 06:45:29;;;;;;;3.13;2.30;;;;;;;;;;5086005;28;20460;-79
2023/01/08 06:48:01;;;;;;;2.60;2.33;;;;;;;;;;5086211;28;20902;-79
2023/01/08 06:50:28;;;;;;;3.70;1.90;;;;;;;;;;5084323;28;20464;-79
2023/01/08 06:52:56;;;;;;;4.07;2.37;;;;;;;;;;5085518;28;20448;-79
2023/01/08 06:55:24;;;;;;;3.10;2.20;;;;;;;;;;5085834;28;20468;-79
2023/01/08 06:57:54;;;;;;;10.17;2.27;;;;;;;;;;5083837;28;20484;-79
2023/01/08 07:00:22;;;;;;;4.53;2.80;;;;;;;;;;5084338;28;20472;-79
2023/01/08 07:02:50;;;;;;;5.53;2.50;;;;;;;;;;5084220;28;20456;-79
2023/01/08 07:05:19;;;;;;;4.37;2.40;;;;;;;;;;5085303;28;20471;-79
2023/01/08 07:07:46;;;;;;;5.53;2.63;;;;;;;;;;5084932;28;20518;-79
2023/01/08 07:10:14;;;;;;;3.80;2.23;;;;;;;;;;5083732;28;20471;-79
2023/01/08 07:12:42;;;;;;;3.27;2.20;;;;;;;;;;5086290;28;20460;-79
2023/01/08 07:15:10;;;;;;;3.47;1.90;;;;;;;;;;5085254;28;20464;-79
2023/01/08 07:17:38;;;;;;;3.87;2.20;;;;;;;;;;5083881;28;20828;-78
2023/01/08 07:20:06;;;;;;;3.80;2.33;;;;;;;;;;5084570;28;20457;-80
2023/01/08 07:22:35;;;;;;;3.20;2.07;;;;;;;;;;5083798;28;20468;-79
2023/01/08 07:25:03;;;;;;;3.97;2.47;;;;;;;;;;5084690;28;20442;-80
2023/01/08 07:27:31;;;;;;;7.50;2.40;;;;;;;;;;5083807;28;20468;-80
2023/01/08 07:29:59;;;;;;;5.80;2.10;;;;;;;;;;5082453;28;20892;-79
2023/01/08 07:32:26;;;;;;;5.17;2.30;;;;;;;;;;5083453;28;20471;-78
2023/01/08 07:34:57;;;;;;;2.80;1.93;;;;;;;;;;5082013;28;20891;-80
2023/01/08 07:37:25;;;;;;;3.93;2.30;;;;;;;;;;5084096;28;20488;-80
2023/01/08 07:39:54;;;;;;;4.57;2.23;;;;;;;;;;5084508;28;20456;-78
2023/01/08 07:42:22;;;;;;;5.23;2.30;;;;;;;;;;5081965;28;20475;-79
2023/01/08 07:44:49;;;;;;;6.63;2.40;;;;;;;;;;5084941;28;20464;-80
2023/01/08 07:47:17;;;;;;;4.37;2.50;;;;;;;;;;5084862;28;20763;-79
2023/01/08 07:49:44;;;;;;;5.70;1.83;;;;;;;;;;5084348;28;20449;-79
2023/01/08 07:52:12;;;;;;;5.93;2.80;;;;;;;;;;5083063;28;20464;-79
2023/01/08 07:54:41;;;;;;;4.10;2.67;;;;;;;;;;5083225;28;20448;-79
2023/01/08 07:57:10;;;;;;;2.80;1.90;;;;;;;;;;5084311;28;20531;-80
2023/01/08 07:59:37;;;;;;;3.30;1.90;;;;;;;;;;5083484;28;20523;-81
2023/01/08 08:02:05;;;;;;;3.07;2.27;;;;;;;;;;5082624;28;20772;-80
2023/01/08 08:04:36;;;;;;;5.13;2.50;;;;;;;;;;5083605;28;20461;-81
2023/01/08 08:07:03;;;;;;;3.27;1.97;;;;;;;;;;5081795;28;20457;-80
2023/01/08 08:09:31;;;;;;;3.70;2.30;;;;;;;;;;5084111;28;20445;-80
2023/01/08 08:11:58;;;;;;;3.80;2.63;;;;;;;;;;5085177;28;20748;-79
2023/01/08 08:14:28;;;;;;;4.27;2.67;;;;;;;;;;5085882;28;20872;-79
2023/01/08 08:16:55;;;;;;;3.33;2.03;;;;;;;;;;5087766;28;20953;-80
2023/01/08 08:19:23;;;;;;;3.43;2.13;;;;;;;;;;5083453;28;20487;-80
2023/01/08 08:21:50;;;;;;;5.20;2.70;;;;;;;;;;5084380;28;20456;-78
2023/01/08 08:24:18;;;;;;;3.33;2.13;;;;;;;;;;5084288;28;20526;-79
2023/01/08 08:26:46;;;;;;;6.87;2.50;;;;;;;;;;5083300;28;20452;-78
2023/01/08 08:29:13;;;;;;;6.13;2.40;;;;;;;;;;5084797;28;20528;-80
2023/01/08 08:31:43;;;;;;;3.63;2.30;;;;;;;;;;5083786;28;20638;-81
2023/01/08 08:34:10;;;;;;;3.30;2.20;;;;;;;;;;5084392;28;20467;-81
2023/01/08 08:36:38;;;;;;;2.93;2.00;;;;;;;;;;5084654;28;20532;-80
2023/01/08 08:39:06;;;;;;;4.63;2.90;;;;;;;;;;5084089;28;20495;-80
2023/01/08 08:41:33;;;;;;;3.30;2.07;;;;;;;;;;5085242;28;20459;-80
2023/01/08 08:44:01;;;;;;;3.23;2.37;;;;;;;;;;5082925;28;20476;-79
2023/01/08 08:46:29;;;;;;;3.67;2.30;;;;;;;;;;5084218;28;20743;-80
2023/01/08 08:49:02;;;;;;;4.70;2.90;;;;;;;;;;5084432;28;21022;-80
2023/01/08 08:51:32;;;;;;;3.77;2.53;;;;;;;;;;5084978;28;20519;-80
2023/01/08 08:54:00;;;;;;;10.00;2.90;;;;;;;;;;5085057;28;20545;-80
2023/01/08 08:56:28;;;;;;;5.23;3.30;;;;;;;;;;5084289;28;20541;-79
2023/01/08 08:58:56;;;;;;;3.70;2.47;;;;;;;;;;5082617;28;20815;-80
2023/01/08 09:01:24;;;;;;;3.60;2.50;;;;;;;;;;5081239;28;20455;-81
2023/01/08 09:03:52;;;;;;;6.03;3.37;;;;;;;;;;5080851;28;20768;-79
2023/01/08 09:06:21;;;;;;;6.47;2.80;;;;;;;;;;5082558;28;20970;-79
2023/01/08 09:08:49;;;;;;;5.30;3.50;;;;;;;;;;5082016;28;20464;-79
2023/01/08 09:11:16;;;;;;;4.80;2.90;;;;;;;;;;5083978;28;20448;-79
2023/01/08 09:13:44;;;;;;;4.60;2.50;;;;;;;;;;5083757;28;20539;-79
2023/01/08 09:16:11;;;;;;;4.00;2.73;;;;;;;;;;5085762;28;20456;-78
2023/01/08 09:18:39;;;;;;;5.07;2.27;;;;;;;;;;5086833;28;20824;-78
2023/01/08 09:21:07;;;;;;;4.27;2.03;;;;;;;;;;5084848;28;20688;-78
2023/01/08 09:23:37;;;;;;;4.40;3.10;;;;;;;;;;5086207;28;20467;-79
2023/01/08 09:26:06;;;;;;;4.27;3.10;;;;;;;;;;5083033;28;20509;-79
2023/01/08 09:28:33;;;;;;;4.30;2.87;;;;;;;;;;5083931;28;20474;-81
2023/01/08 09:31:02;;;;;;;4.33;2.80;;;;;;;;;;5082787;28;20449;-80
2023/01/08 09:33:30;;;;;;;6.77;2.97;;;;;;;;;;5085332;28;20468;-79
2023/01/08 09:35:57;;;;;;;4.93;2.43;;;;;;;;;;5084332;28;20492;-80
2023/01/08 09:38:25;;;;;;;4.90;2.97;;;;;;;;;;5084309;28;20488;-78
2023/01/08 09:40:56;;;;;;;6.20;3.13;;;;;;;;;;5084648;28;20460;-80
2023/01/08 09:43:25;;;;;;;5.00;3.37;;;;;;;;;;5085570;28;20460;-80
2023/01/08 09:45:54;;;;;;;4.10;3.17;;;;;;;;;;5082822;28;20457;-80
2023/01/08 09:48:24;;;;;;;4.63;2.23;;;;;;;;;;5083261;28;20484;-80
2023/01/08 09:50:52;;;;;;;6.40;3.20;;;;;;;;;;5079834;28;20748;-79
2023/01/08 09:53:20;;;;;;;4.90;3.03;;;;;;;;;;5081969;28;20461;-81
2023/01/08 09:55:52;;;;;;;3.90;2.67;;;;;;;;;;5080904;28;20536;-81
2023/01/08 09:58:25;;;;;;;6.13;3.93;;;;;;;;;;5081512;28;20484;-80
2023/01/08 10:00:56;;;;;;;4.37;3.20;;;;;;;;;;5080548;28;20468;-80
2023/01/08 10:03:26;;;;;;;5.43;3.50;;;;;;;;;;5082073;28;20457;-80
2023/01/08 10:05:54;;;;;;;3.43;3.03;;;;;;;;;;5080487;28;20444;-81
2023/01/08 10:08:21;;;;;;;5.57;3.00;;;;;;;;;;5099278;28;20479;-80
2023/01/08 10:10:49;;;;;;;4.90;3.30;;;;;;;;;;5114433;28;20607;-80
2023/01/08 10:13:17;;;;;;;5.77;2.80;;;;;;;;;;5080636;28;20468;-80
2023/01/08 10:15:47;;;;;;;3.43;2.37;;;;;;;;;;5080772;28;20449;-79
2023/01/08 10:18:15;;;;;;;3.37;2.40;;;;;;;;;;5104905;28;20766;-80
2023/01/08 10:20:43;;;;;;;4.20;2.87;;;;;;;;;;5099880;28;20466;-79
2023/01/08 10:23:11;;;;;;;4.43;2.20;;;;;;;;;;5082171;28;20464;-80
2023/01/08 10:25:49;;;;;;;3.00;2.03;;;;;;;;;;5080690;28;20471;-80
2023/01/08 10:28:20;;;;;;;5.20;2.90;;;;;;;;;;5099406;28;20466;-80
2023/01/08 10:30:49;;;;;;;3.93;2.20;;;;;;;;;;5121435;28;20466;-80
2023/01/08 10:33:19;;;;;;;5.13;2.47;;;;;;;;;;5120745;28;20463;-80
2023/01/08 10:35:53;;;;;;;4.30;2.73;;;;;;;;;;5094832;28;20472;-81
2023/01/08 10:38:25;;;;;;;3.93;2.10;;;;;;;;;;5103052;28;20487;-79
2023/01/08 10:40:53;;;;;;;4.90;3.40;;;;;;;;;;5101158;28;20455;-78
2023/01/08 10:43:23;;;;;;;5.90;3.60;;;;;;;;;;5104115;28;20466;-79
2023/01/08 10:46:00;;;;;;;5.30;3.47;;;;;;;;;;5100341;28;20448;-77
2023/01/08 10:48:31;;;;;;;4.57;3.10;;;;;;;;;;5101983;28;20467;-80
2023/01/08 10:51:06;;;;;;;4.23;2.50;;;;;;;;;;5089893;28;20469;-80
2023/01/08 10:53:34;;;;;;;4.40;3.50;;;;;;;;;;5079668;28;20463;-80
2023/01/08 10:56:02;;;;;;;4.33;3.03;;;;;;;;;;5103185;28;20463;-80
2023/01/08 10:58:32;;;;;;;3.63;2.60;;;;;;;;;;5119268;28;20497;-79
2023/01/08 11:01:13;;;;;;;4.80;2.50;;;;;;;;;;5119868;28;20461;-79
2023/01/08 11:03:41;;;;;;;5.07;2.47;;;;;;;;;;5120566;28;20471;-80
2023/01/08 11:06:13;;;;;;;4.70;2.77;;;;;;;;;;5104040;28;20548;-79
2023/01/08 11:08:48;;;;;;;4.90;2.60;;;;;;;;;;5102998;28;20455;-79
2023/01/08 11:11:16;;;;;;;4.17;2.40;;;;;;;;;;5086672;28;20459;-80
2023/01/08 11:13:50;;;;;;;2.93;2.10;;;;;;;;;;5079363;28;20717;-79
2023/01/08 11:16:23;;;;;;;3.20;2.60;;;;;;;;;;5081386;28;20540;-78
2023/01/08 11:18:52;;;;;;;5.37;1.73;;;;;;;;;;5080314;28;20518;-79
2023/01/08 11:21:21;;;;;;;4.87;2.00;;;;;;;;;;5079886;28;20459;-79
2023/01/08 11:23:49;;;;;;;3.87;2.03;;;;;;;;;;5080589;28;20449;-80
2023/01/08 11:26:18;;;;;;;3.07;1.80;;;;;;;;;;5081849;28;20620;-79
2023/01/08 11:28:50;;;;;;;4.07;2.00;;;;;;;;;;5083516;28;20456;-80
2023/01/08 11:31:24;;;;;;;4.90;1.80;;;;;;;;;;5084612;28;20456;-79
2023/01/08 11:33:56;;;;;;;2.97;1.70;;;;;;;;;;5086737;28;20457;-78
2023/01/08 11:36:26;;;;;;;3.50;2.03;;;;;;;;;;5086467;28;20456;-80
2023/01/08 11:38:54;;;;;;;4.60;2.23;;;;;;;;;;5085661;28;20484;-79
2023/01/08 11:41:37;;;;;;;3.30;1.77;;;;;;;;;;5088582;28;20546;-80
2023/01/08 11:44:12;;;;;;;3.40;1.30;;;;;;;;;;5086112;28;20457;-80
2023/01/08 11:46:42;;;;;;;2.60;1.63;;;;;;;;;;5082571;28;20471;-80
2023/01/08 11:49:26;;;;;;;3.93;1.90;;;;;;;;;;5086863;28;20723;-78
2023/01/08 11:52:01;;;;;;;2.90;1.40;;;;;;;;;;5085478;28;20457;-79
2023/01/08 11:54:35;;;;;;;3.63;2.37;;;;;;;;;;5084178;28;20460;-79
2023/01/08 11:57:09;;;;;;;2.40;1.50;;;;;;;;;;5087259;28;20468;-78
2023/01/08 11:59:43;;;;;;;1.90;1.17;;;;;;;;;;5082551;28;20513;-81
2023/01/08 12:02:23;;;;;;;3.47;1.53;;;;;;;;;;5085188;28;20448;-81
2023/01/08 12:05:06;;;;;;;2.73;1.67;;;;;;;;;;5085504;28;20460;-79
2023/01/08 12:07:39;;;;;;;2.03;1.30;;;;;;;;;;5070906;28;20460;-80
2023/01/08 12:10:15;;;;;;;3.17;1.63;;;;;;;;;;5083788;28;20464;-80
2023/01/08 12:12:50;;;;;;;2.73;1.33;;;;;;;;;;5083560;28;20452;-80
2023/01/08 12:15:20;;;;;;;2.53;1.10;;;;;;;;;;5083561;28;20448;-79
2023/01/08 12:17:53;;;;;;;2.50;1.33;;;;;;;;;;5085730;28;20512;-81
2023/01/08 12:20:25;;;;;;;3.20;1.83;;;;;;;;;;5082971;28;20671;-80
2023/01/08 12:22:59;;;;;;;4.23;2.70;;;;;;;;;;5084769;28;20459;-80
2023/01/08 12:25:39;;;;;;;3.30;1.50;;;;;;;;;;5084154;28;20456;-80
2023/01/08 12:28:14;;;;;;;2.20;1.30;;;;;;;;;;5084110;28;20454;-80
2023/01/08 12:30:47;;;;;;;2.53;1.40;;;;;;;;;;5086611;28;20456;-79
2023/01/08 12:33:17;;;;;;;3.90;2.17;;;;;;;;;;5105938;27;20556;-80
2023/01/08 12:35:49;;;;;;;1.83;1.00;;;;;;;;;;5104911;27;20467;-81
2023/01/08 12:38:20;;;;;;;2.63;1.10;;;;;;;;;;5104952;27;20451;-77
2023/01/08 12:40:50;;;;;;;3.23;1.30;;;;;;;;;;5102627;27;20958;-80
2023/01/08 12:43:22;;;;;;;1.90;0.90;;;;;;;;;;5102860;27;20444;-80
2023/01/08 12:45:51;;;;;;;2.37;1.10;;;;;;;;;;5103553;27;20462;-80
2023/01/08 12:48:19;;;;;;;3.90;2.13;;;;;;;;;;5103536;27;20448;-80
2023/01/08 12:50:57;;;;;;;3.40;1.80;;;;;;;;;;5103854;27;20466;-80
2023/01/08 12:53:31;;;;;;;2.43;1.30;;;;;;;;;;5103485;27;20742;-80
2023/01/08 12:56:03;;;;;;;2.43;1.33;;;;;;;;;;5102801;27;20464;-80
2023/01/08 12:58:35;;;;;;;2.37;0.93;;;;;;;;;;5103199;27;20489;-79
2023/01/08 13:01:08;;;;;;;1.97;1.00;;;;;;;;;;5104475;27;20455;-79
2023/01/08 13:03:37;;;;;;;2.63;0.80;;;;;;;;;;5105737;27;20452;-80
2023/01/08 13:06:12;;;;;;;2.30;1.10;;;;;;;;;;5107552;27;20918;-80
2023/01/08 13:08:42;;;;;;;4.47;2.00;;;;;;;;;;5106520;27;20459;-81
2023/01/08 13:11:10;;;;;;;2.47;0.80;;;;;;;;;;5107442;27;20466;-80
2023/01/08 13:13:40;;;;;;;2.13;1.10;;;;;;;;;;5108978;27;20448;-80
2023/01/08 13:16:19;;;;;;;3.70;1.53;;;;;;;;;;5096464;28;20465;-80
2023/01/08 13:18:58;;;;;;;3.30;2.03;;;;;;;;;;5103550;27;20488;-81
2023/01/08 13:21:37;;;;;;;6.60;1.63;;;;;;;;;;5088687;28;20464;-81
2023/01/08 13:24:08;;;;;;;2.63;1.33;;;;;;;;;;5088250;28;20452;-79
2023/01/08 13:26:36;;;;;;;2.47;1.10;;;;;;;;;;5085908;28;20464;-79
2023/01/08 13:29:08;;;;;;;3.23;1.60;;;;;;;;;;5087618;28;20463;-81
2023/01/08 13:31:40;;;;;;;3.30;0.93;;;;;;;;;;5088106;28;20464;-81
2023/01/08 13:34:22;;;;;;;2.57;1.10;;;;;;;;;;5085343;28;20478;-81
2023/01/08 13:36:56;;;;;;;1.90;0.90;;;;;;;;;;5086901;28;20471;-80
2023/01/08 13:39:32;;;;;;;2.37;0.97;;;;;;;;;;5086476;28;20515;-80
2023/01/08 13:42:20;;;;;;;5.73;1.40;;;;;;;;;;5089907;28;20471;-80
2023/01/08 13:44:49;;;;;;;2.83;1.20;;;;;;;;;;5085167;28;20456;-80
2023/01/08 13:47:19;;;;;;;3.23;1.73;;;;;;;;;;5085269;28;20460;-80
2023/01/08 13:49:50;;;;;;;2.00;1.03;;;;;;;;;;5084235;28;20511;-80
2023/01/08 13:52:32;;;;;;;2.83;1.50;;;;;;;;;;5084643;28;20480;-80
2023/01/08 13:55:04;;;;;;;3.00;1.40;;;;;;;;;;5084943;28;20457;-79
2023/01/08 13:57:35;;;;;;;2.90;1.00;;;;;;;;;;5085683;28;20460;-80
2023/01/08 14:00:05;;;;;;;2.77;1.30;;;;;;;;;;5084529;28;20487;-80
2023/01/08 14:02:34;;;;;;;2.70;0.90;;;;;;;;;;5084600;28;20457;-79
2023/01/08 14:05:02;;;;;;;2.67;1.40;;;;;;;;;;5084289;28;20541;-80
2023/01/08 14:07:30;;;;;;;2.63;1.23;;;;;;;;;;5087939;28;20474;-80
2023/01/08 14:10:08;;;;;;;1.93;0.80;;;;;;;;;;5102808;28;20459;-80
2023/01/08 14:12:36;;;;;;;6.70;1.43;;;;;;;;;;5087426;28;20537;-80
2023/01/08 14:15:08;;;;;;;1.87;1.13;;;;;;;;;;5087159;28;20472;-80
2023/01/08 14:17:36;;;;;;;5.37;1.23;;;;;;;;;;5083587;28;20476;-80
2023/01/08 14:20:10;;;;;;;3.17;1.10;;;;;;;;;;5083073;28;20488;-80
2023/01/08 14:22:37;;;;;;;2.60;1.30;;;;;;;;;;5085482;28;20479;-80
2023/01/08 14:25:06;;;;;;;3.87;1.20;;;;;;;;;;5092912;28;20467;-79
2023/01/08 14:27:35;;;;;;;3.50;1.30;;;;;;;;;;5105229;28;20567;-80
2023/01/08 14:30:03;;;;;;;11.23;2.00;;;;;;;;;;5106047;28;20455;-80
2023/01/08 14:32:31;;;;;;;3.30;1.57;;;;;;;;;;5107163;28;20460;-80
2023/01/08 14:35:00;;;;;;;3.20;1.70;;;;;;;;;;5102841;28;20452;-79
2023/01/08 14:37:28;;;;;;;3.20;1.53;;;;;;;;;;5105321;28;20467;-79
2023/01/08 14:39:56;;;;;;;3.40;1.10;;;;;;;;;;5105800;28;20498;-79
2023/01/08 14:42:43;;;;;;;3.47;1.50;;;;;;;;;;5103691;28;20470;-79
2023/01/08 14:45:17;;;;;;;6.40;3.17;;;;;;;;;;5106074;28;20448;-79
2023/01/08 14:47:45;;;;;;;4.20;1.50;;;;;;;;;;5104341;28;20475;-80
2023/01/08 14:50:18;;;;;;;3.10;2.00;;;;;;;;;;5101965;28;20483;-80
2023/01/08 14:52:46;;;;;;;3.47;1.73;;;;;;;;;;5104191;28;20880;-80
2023/01/08 14:55:17;;;;;;;3.53;2.10;;;;;;;;;;5103792;28;20459;-80
2023/01/08 14:57:45;;;;;;;8.97;2.60;;;;;;;;;;5101360;28;20483;-80